sensor_id;sensor_type;location;lat;lon;timestamp;P1;durP1;ratioP1;P2;durP2;ratioP2
4174;SDS011;2101;48.290;14.382;2023-11-21T02:57:20;53.87;;;4.27;;
4174;SDS011;2101;48.290;14.382;2023-11-21T02:59:46;44.67;;;4.20;;
4174;SDS011;2101;48.290;14.382;2023-11-21T03:02:16;56.00;;;4.80;;
4174;SDS011;2101;48.290;14.382;2023-11-21T03:04:43;51.60;;;6.60;;
4174;SDS011;2101;48.290;14.382;2023-11-21T03:07:09;62.03;;;7.30;;
4174;SDS011;2101;48.290;14.382;2023-11-21T03:09:36;64.47;;;7.10;;
4174;SDS011;2101;48.290;14.382;2023-11-21T03:12:04;61.00;;;7.97;;
4174;SDS011;2101;48.290;14.382;2023-11-21T03:14:30;64.13;;;7.13;;
4174;SDS011;2101;48.290;14.382;2023-11-21T03:16:58;60.23;;;6.87;;
4174;SDS011;2101;48.290;14.382;2023-11-21T03:19:24;56.03;;;7.10;;
4174;SDS011;2101;48.290;14.382;2023-11-21T03:21:51;93.00;;;11.70;;
4174;SDS011;2101;48.290;14.382;2023-11-21T03:24:21;73.97;;;10.53;;
4174;SDS011;2101;48.290;14.382;2023-11-21T03:26:49;72.80;;;8.97;;
4174;SDS011;2101;48.290;14.382;2023-11-21T03:29:16;64.20;;;6.87;;
4174;SDS011;2101;48.290;14.382;2023-11-21T03:31:42;51.77;;;6.30;;
4174;SDS011;2101;48.290;14.382;2023-11-21T03:34:19;86.80;;;12.70;;
4174;SDS011;2101;48.290;14.382;2023-11-21T03:36:46;79.23;;;12.60;;
4174;SDS011;2101;48.290;14.382;2023-11-21T03:39:12;94.70;;;16.63;;
4174;SDS011;2101;48.290;14.382;2023-11-21T03:41:39;116.03;;;18.97;;
4174;SDS011;2101;48.290;14.382;2023-11-21T03:44:05;81.93;;;12.80;;
4174;SDS011;2101;48.290;14.382;2023-11-21T03:46:35;65.70;;;9.17;;
4174;SDS011;2101;48.290;14.382;2023-11-21T03:49:04;64.20;;;10.60;;
4174;SDS011;2101;48.290;14.382;2023-11-21T03:59:26;51.50;;;5.67;;
4174;SDS011;2101;48.290;14.382;2023-11-21T04:01:57;64.00;;;6.27;;
4174;SDS011;2101;48.290;14.382;2023-11-21T04:04:23;76.23;;;10.73;;
4174;SDS011;2101;48.290;14.382;2023-11-21T04:06:52;90.67;;;14.70;;
4174;SDS011;2101;48.290;14.382;2023-11-21T04:09:19;90.50;;;16.67;;
4174;SDS011;2101;48.290;14.382;2023-11-21T04:11:45;79.63;;;12.00;;
4174;SDS011;2101;48.290;14.382;2023-11-21T04:14:12;98.10;;;18.80;;
4174;SDS011;2101;48.290;14.382;2023-11-21T04:19:17;79.30;;;13.43;;
4174;SDS011;2101;48.290;14.382;2023-11-21T04:22:01;75.43;;;10.60;;
4174;SDS011;2101;48.290;14.382;2023-11-21T04:24:27;69.33;;;6.63;;
4174;SDS011;2101;48.290;14.382;2023-11-21T04:26:53;49.17;;;4.90;;
4174;SDS011;2101;48.290;14.382;2023-11-21T04:29:20;50.70;;;3.80;;
4174;SDS011;2101;48.290;14.382;2023-11-21T04:31:48;46.63;;;3.33;;
4174;SDS011;2101;48.290;14.382;2023-11-21T04:34:14;50.70;;;5.00;;
4174;SDS011;2101;48.290;14.382;2023-11-21T04:36:42;48.13;;;3.03;;
4174;SDS011;2101;48.290;14.382;2023-11-21T04:41:51;42.90;;;3.10;;
4174;SDS011;2101;48.290;14.382;2023-11-21T04:49:42;50.43;;;4.23;;
4174;SDS011;2101;48.290;14.382;2023-11-21T04:52:12;50.53;;;4.07;;
4174;SDS011;2101;48.290;14.382;2023-11-21T04:54:39;41.90;;;2.67;;
4174;SDS011;2101;48.290;14.382;2023-11-21T04:59:44;52.47;;;2.93;;
4174;SDS011;2101;48.290;14.382;2023-11-21T05:02:14;48.87;;;2.57;;
4174;SDS011;2101;48.290;14.382;2023-11-21T05:04:40;48.73;;;2.43;;
4174;SDS011;2101;48.290;14.382;2023-11-21T05:07:12;48.00;;;2.03;;
4174;SDS011;2101;48.290;14.382;2023-11-21T05:09:44;41.40;;;2.60;;
4174;SDS011;2101;48.290;14.382;2023-11-21T05:12:14;42.27;;;3.10;;
4174;SDS011;2101;48.290;14.382;2023-11-21T05:14:55;44.13;;;2.80;;
4174;SDS011;2101;48.290;14.382;2023-11-21T05:17:54;43.33;;;2.83;;
4174;SDS011;2101;48.290;14.382;2023-11-21T05:20:30;42.63;;;2.63;;
4174;SDS011;2101;48.290;14.382;2023-11-21T05:25:39;44.30;;;3.10;;
4174;SDS011;2101;48.290;14.382;2023-11-21T05:28:11;45.50;;;3.03;;
4174;SDS011;2101;48.290;14.382;2023-11-21T05:30:38;48.03;;;3.30;;
4174;SDS011;2101;48.290;14.382;2023-11-21T05:33:04;49.07;;;3.73;;
4174;SDS011;2101;48.290;14.382;2023-11-21T05:40:42;49.20;;;3.67;;
4174;SDS011;2101;48.290;14.382;2023-11-21T05:45:52;52.30;;;4.67;;
4174;SDS011;2101;48.290;14.382;2023-11-21T07:16:20;43.50;;;4.03;;
4174;SDS011;2101;48.290;14.382;2023-11-21T07:18:47;47.47;;;4.40;;
4174;SDS011;2101;48.290;14.382;2023-11-21T07:21:14;44.33;;;4.10;;
4174;SDS011;2101;48.290;14.382;2023-11-21T07:23:41;48.17;;;4.90;;
4174;SDS011;2101;48.290;14.382;2023-11-21T07:26:07;44.73;;;4.33;;
4174;SDS011;2101;48.290;14.382;2023-11-21T07:28:35;56.50;;;4.80;;
4174;SDS011;2101;48.290;14.382;2023-11-21T07:31:01;46.10;;;4.57;;
4174;SDS011;2101;48.290;14.382;2023-11-21T07:33:28;45.03;;;4.13;;
4174;SDS011;2101;48.290;14.382;2023-11-21T07:35:54;42.90;;;3.57;;
4174;SDS011;2101;48.290;14.382;2023-11-21T07:38:20;43.57;;;3.67;;
4174;SDS011;2101;48.290;14.382;2023-11-21T07:40:47;41.10;;;3.67;;
4174;SDS011;2101;48.290;14.382;2023-11-21T07:43:13;65.90;;;4.10;;
4174;SDS011;2101;48.290;14.382;2023-11-21T07:45:39;42.60;;;4.13;;
4174;SDS011;2101;48.290;14.382;2023-11-21T07:48:05;42.93;;;3.77;;
4174;SDS011;2101;48.290;14.382;2023-11-21T07:50:32;43.43;;;2.53;;
4174;SDS011;2101;48.290;14.382;2023-11-21T07:52:58;43.97;;;4.10;;
4174;SDS011;2101;48.290;14.382;2023-11-21T07:55:24;48.57;;;2.83;;
4174;SDS011;2101;48.290;14.382;2023-11-21T07:57:51;41.83;;;2.77;;
4174;SDS011;2101;48.290;14.382;2023-11-21T08:02:54;44.97;;;3.40;;
4174;SDS011;2101;48.290;14.382;2023-11-21T08:05:21;51.87;;;3.80;;
4174;SDS011;2101;48.290;14.382;2023-11-21T08:07:47;43.93;;;3.40;;
4174;SDS011;2101;48.290;14.382;2023-11-21T08:10:13;40.97;;;3.23;;
4174;SDS011;2101;48.290;14.382;2023-11-21T08:12:40;47.23;;;4.20;;
4174;SDS011;2101;48.290;14.382;2023-11-21T08:15:08;49.73;;;4.40;;
4174;SDS011;2101;48.290;14.382;2023-11-21T08:17:35;66.23;;;4.27;;
4174;SDS011;2101;48.290;14.382;2023-11-21T08:20:02;39.90;;;2.90;;
4174;SDS011;2101;48.290;14.382;2023-11-21T08:22:28;49.87;;;4.10;;
4174;SDS011;2101;48.290;14.382;2023-11-21T08:24:55;47.73;;;4.20;;
4174;SDS011;2101;48.290;14.382;2023-11-21T08:27:23;43.70;;;3.40;;
4174;SDS011;2101;48.290;14.382;2023-11-21T08:29:49;42.40;;;3.70;;
4174;SDS011;2101;48.290;14.382;2023-11-21T08:32:18;47.40;;;3.80;;
4174;SDS011;2101;48.290;14.382;2023-11-21T08:34:45;44.87;;;3.77;;
4174;SDS011;2101;48.290;14.382;2023-11-21T08:37:14;45.53;;;3.60;;
4174;SDS011;2101;48.290;14.382;2023-11-21T08:39:40;52.80;;;3.70;;
4174;SDS011;2101;48.290;14.382;2023-11-21T08:42:08;49.03;;;4.13;;
4174;SDS011;2101;48.290;14.382;2023-11-21T08:44:53;45.80;;;3.00;;
4174;SDS011;2101;48.290;14.382;2023-11-21T08:47:19;43.77;;;3.57;;
4174;SDS011;2101;48.290;14.382;2023-11-21T08:49:46;45.80;;;4.13;;
4174;SDS011;2101;48.290;14.382;2023-11-21T08:52:12;46.03;;;3.70;;
4174;SDS011;2101;48.290;14.382;2023-11-21T08:54:39;55.53;;;4.77;;
4174;SDS011;2101;48.290;14.382;2023-11-21T08:57:05;60.33;;;3.80;;
4174;SDS011;2101;48.290;14.382;2023-11-21T08:59:31;42.70;;;3.57;;
4174;SDS011;2101;48.290;14.382;2023-11-21T09:01:58;54.43;;;4.63;;
4174;SDS011;2101;48.290;14.382;2023-11-21T09:04:24;42.77;;;3.30;;
4174;SDS011;2101;48.290;14.382;2023-11-21T09:06:50;49.03;;;4.57;;
4174;SDS011;2101;48.290;14.382;2023-11-21T09:09:16;44.90;;;4.47;;
4174;SDS011;2101;48.290;14.382;2023-11-21T09:11:44;52.47;;;4.50;;
4174;SDS011;2101;48.290;14.382;2023-11-21T09:14:11;52.70;;;4.47;;
4174;SDS011;2101;48.290;14.382;2023-11-21T09:16:40;47.03;;;4.57;;
4174;SDS011;2101;48.290;14.382;2023-11-21T09:19:06;47.00;;;4.73;;
4174;SDS011;2101;48.290;14.382;2023-11-21T09:21:32;47.30;;;5.30;;
4174;SDS011;2101;48.290;14.382;2023-11-21T09:23:59;44.10;;;4.07;;
4174;SDS011;2101;48.290;14.382;2023-11-21T09:26:25;42.90;;;3.67;;
4174;SDS011;2101;48.290;14.382;2023-11-21T09:28:51;47.20;;;3.70;;
4174;SDS011;2101;48.290;14.382;2023-11-21T09:31:18;47.03;;;4.27;;
4174;SDS011;2101;48.290;14.382;2023-11-21T09:33:47;45.00;;;3.87;;
4174;SDS011;2101;48.290;14.382;2023-11-21T09:36:14;52.30;;;4.00;;
4174;SDS011;2101;48.290;14.382;2023-11-21T09:38:40;45.13;;;4.33;;
4174;SDS011;2101;48.290;14.382;2023-11-21T09:41:19;48.37;;;3.77;;
4174;SDS011;2101;48.290;14.382;2023-11-21T09:43:47;48.43;;;4.60;;
4174;SDS011;2101;48.290;14.382;2023-11-21T09:46:13;53.90;;;5.17;;
4174;SDS011;2101;48.290;14.382;2023-11-21T09:48:45;52.93;;;4.37;;
4174;SDS011;2101;48.290;14.382;2023-11-21T09:51:12;50.93;;;4.77;;
4174;SDS011;2101;48.290;14.382;2023-11-21T09:53:38;54.93;;;4.90;;
4174;SDS011;2101;48.290;14.382;2023-11-21T09:56:09;53.30;;;6.10;;
4174;SDS011;2101;48.290;14.382;2023-11-21T09:58:35;49.07;;;4.87;;
4174;SDS011;2101;48.290;14.382;2023-11-21T10:01:01;50.57;;;5.00;;
4174;SDS011;2101;48.290;14.382;2023-11-21T10:03:34;48.73;;;5.30;;
4174;SDS011;2101;48.290;14.382;2023-11-21T10:06:01;50.43;;;5.17;;
4174;SDS011;2101;48.290;14.382;2023-11-21T10:08:30;50.10;;;4.77;;
4174;SDS011;2101;48.290;14.382;2023-11-21T10:10:58;53.73;;;5.00;;
4174;SDS011;2101;48.290;14.382;2023-11-21T10:13:24;46.90;;;4.53;;
4174;SDS011;2101;48.290;14.382;2023-11-21T10:15:52;46.23;;;4.10;;
4174;SDS011;2101;48.290;14.382;2023-11-21T10:18:19;48.10;;;5.10;;
4174;SDS011;2101;48.290;14.382;2023-11-21T10:20:45;47.53;;;4.70;;
4174;SDS011;2101;48.290;14.382;2023-11-21T10:23:18;50.90;;;4.20;;
4174;SDS011;2101;48.290;14.382;2023-11-21T10:25:47;59.70;;;5.13;;
4174;SDS011;2101;48.290;14.382;2023-11-21T10:28:14;60.10;;;5.70;;
4174;SDS011;2101;48.290;14.382;2023-11-21T10:30:41;54.53;;;5.60;;
4174;SDS011;2101;48.290;14.382;2023-11-21T10:33:07;49.13;;;5.70;;
4174;SDS011;2101;48.290;14.382;2023-11-21T10:35:42;49.13;;;5.03;;
4174;SDS011;2101;48.290;14.382;2023-11-21T10:38:12;53.80;;;4.47;;
4174;SDS011;2101;48.290;14.382;2023-11-21T10:40:40;45.93;;;4.80;;
4174;SDS011;2101;48.290;14.382;2023-11-21T10:43:07;49.67;;;4.63;;
4174;SDS011;2101;48.290;14.382;2023-11-21T10:45:34;47.00;;;4.50;;
4174;SDS011;2101;48.290;14.382;2023-11-21T10:48:04;49.93;;;4.37;;
4174;SDS011;2101;48.290;14.382;2023-11-21T10:50:32;46.93;;;3.60;;
4174;SDS011;2101;48.290;14.382;2023-11-21T10:53:00;57.50;;;4.13;;
4174;SDS011;2101;48.290;14.382;2023-11-21T10:55:28;53.60;;;3.70;;
4174;SDS011;2101;48.290;14.382;2023-11-21T10:58:00;51.40;;;4.50;;
4174;SDS011;2101;48.290;14.382;2023-11-21T11:00:28;55.00;;;4.30;;
4174;SDS011;2101;48.290;14.382;2023-11-21T11:02:55;50.43;;;4.17;;
4174;SDS011;2101;48.290;14.382;2023-11-21T11:05:23;47.20;;;4.37;;
4174;SDS011;2101;48.290;14.382;2023-11-21T11:08:04;48.70;;;4.20;;
4174;SDS011;2101;48.290;14.382;2023-11-21T11:10:30;50.00;;;4.67;;
4174;SDS011;2101;48.290;14.382;2023-11-21T11:12:58;51.70;;;3.63;;
4174;SDS011;2101;48.290;14.382;2023-11-21T11:15:29;49.97;;;4.30;;
4174;SDS011;2101;48.290;14.382;2023-11-21T11:17:55;51.23;;;4.33;;
4174;SDS011;2101;48.290;14.382;2023-11-21T11:20:22;68.03;;;4.60;;
4174;SDS011;2101;48.290;14.382;2023-11-21T11:28:00;54.37;;;4.23;;
4174;SDS011;2101;48.290;14.382;2023-11-21T11:30:45;46.67;;;3.30;;
4174;SDS011;2101;48.290;14.382;2023-11-21T11:33:21;48.33;;;3.90;;
4174;SDS011;2101;48.290;14.382;2023-11-21T11:38:20;48.83;;;3.33;;
4174;SDS011;2101;48.290;14.382;2023-11-21T11:40:48;43.10;;;2.83;;
4174;SDS011;2101;48.290;14.382;2023-11-21T11:43:27;44.83;;;2.60;;
4174;SDS011;2101;48.290;14.382;2023-11-21T11:45:57;45.87;;;3.27;;
4174;SDS011;2101;48.290;14.382;2023-11-21T11:48:28;43.43;;;2.77;;
4174;SDS011;2101;48.290;14.382;2023-11-21T11:51:04;42.30;;;2.53;;
4174;SDS011;2101;48.290;14.382;2023-11-21T11:53:40;48.47;;;3.10;;
4174;SDS011;2101;48.290;14.382;2023-11-21T11:56:19;42.97;;;2.50;;
4174;SDS011;2101;48.290;14.382;2023-11-21T11:58:51;42.23;;;2.30;;
4174;SDS011;2101;48.290;14.382;2023-11-21T12:01:20;46.00;;;2.83;;
4174;SDS011;2101;48.290;14.382;2023-11-21T12:06:37;43.47;;;2.93;;
4174;SDS011;2101;48.290;14.382;2023-11-21T12:09:04;45.70;;;2.60;;
4174;SDS011;2101;48.290;14.382;2023-11-21T12:11:33;43.03;;;2.20;;
4174;SDS011;2101;48.290;14.382;2023-11-21T12:14:01;44.30;;;2.40;;
4174;SDS011;2101;48.290;14.382;2023-11-21T12:16:28;44.37;;;2.73;;
4174;SDS011;2101;48.290;14.382;2023-11-21T12:18:54;42.37;;;2.70;;
4174;SDS011;2101;48.290;14.382;2023-11-21T12:21:20;44.37;;;3.10;;
4174;SDS011;2101;48.290;14.382;2023-11-21T12:23:51;46.00;;;2.80;;
4174;SDS011;2101;48.290;14.382;2023-11-21T12:26:17;44.47;;;3.00;;
4174;SDS011;2101;48.290;14.382;2023-11-21T12:28:51;46.40;;;3.37;;
4174;SDS011;2101;48.290;14.382;2023-11-21T12:31:21;41.17;;;1.97;;
4174;SDS011;2101;48.290;14.382;2023-11-21T12:33:47;46.80;;;3.10;;
4174;SDS011;2101;48.290;14.382;2023-11-21T12:36:13;47.30;;;3.07;;
4174;SDS011;2101;48.290;14.382;2023-11-21T12:38:40;43.60;;;3.00;;
4174;SDS011;2101;48.290;14.382;2023-11-21T12:41:07;52.60;;;3.47;;
4174;SDS011;2101;48.290;14.382;2023-11-21T12:43:33;45.00;;;3.20;;
4174;SDS011;2101;48.290;14.382;2023-11-21T12:48:32;50.20;;;3.40;;
4174;SDS011;2101;48.290;14.382;2023-11-21T12:50:58;46.20;;;3.90;;
4174;SDS011;2101;48.290;14.382;2023-11-21T12:53:28;51.23;;;3.50;;
4174;SDS011;2101;48.290;14.382;2023-11-21T12:56:02;48.33;;;5.00;;
4174;SDS011;2101;48.290;14.382;2023-11-21T12:58:28;53.23;;;4.50;;
4174;SDS011;2101;48.290;14.382;2023-11-21T13:00:55;51.83;;;4.57;;
4174;SDS011;2101;48.290;14.382;2023-11-21T13:03:24;48.03;;;4.37;;
4174;SDS011;2101;48.290;14.382;2023-11-21T13:05:51;45.33;;;3.40;;
4174;SDS011;2101;48.290;14.382;2023-11-21T13:08:20;42.30;;;3.27;;
4174;SDS011;2101;48.290;14.382;2023-11-21T13:10:51;42.63;;;2.97;;
4174;SDS011;2101;48.290;14.382;2023-11-21T13:13:17;50.30;;;3.13;;
4174;SDS011;2101;48.290;14.382;2023-11-21T13:15:50;44.90;;;3.03;;
4174;SDS011;2101;48.290;14.382;2023-11-21T13:18:17;51.27;;;3.03;;
4174;SDS011;2101;48.290;14.382;2023-11-21T13:20:43;47.03;;;3.50;;
4174;SDS011;2101;48.290;14.382;2023-11-21T13:23:12;42.40;;;3.40;;
4174;SDS011;2101;48.290;14.382;2023-11-21T13:26:02;45.87;;;3.13;;
4174;SDS011;2101;48.290;14.382;2023-11-21T13:28:30;57.37;;;3.67;;
4174;SDS011;2101;48.290;14.382;2023-11-21T13:30:59;44.30;;;3.37;;
4174;SDS011;2101;48.290;14.382;2023-11-21T13:34:00;49.60;;;4.10;;
4174;SDS011;2101;48.290;14.382;2023-11-21T13:36:30;44.47;;;3.73;;
4174;SDS011;2101;48.290;14.382;2023-11-21T13:39:00;46.20;;;4.07;;
4174;SDS011;2101;48.290;14.382;2023-11-21T13:41:32;43.97;;;3.07;;
4174;SDS011;2101;48.290;14.382;2023-11-21T13:43:59;41.53;;;2.70;;
4174;SDS011;2101;48.290;14.382;2023-11-21T13:46:51;43.13;;;2.60;;
4174;SDS011;2101;48.290;14.382;2023-11-21T13:49:17;50.13;;;2.67;;
4174;SDS011;2101;48.290;14.382;2023-11-21T13:51:46;52.57;;;3.13;;
4174;SDS011;2101;48.290;14.382;2023-11-21T13:54:17;44.70;;;2.30;;
4174;SDS011;2101;48.290;14.382;2023-11-21T13:56:49;42.43;;;2.37;;
4174;SDS011;2101;48.290;14.382;2023-11-21T13:59:15;41.00;;;2.67;;
4174;SDS011;2101;48.290;14.382;2023-11-21T14:01:53;46.70;;;3.17;;
4174;SDS011;2101;48.290;14.382;2023-11-21T14:04:20;44.70;;;3.70;;
4174;SDS011;2101;48.290;14.382;2023-11-21T14:07:16;45.30;;;3.30;;
4174;SDS011;2101;48.290;14.382;2023-11-21T14:09:51;45.60;;;3.30;;
4174;SDS011;2101;48.290;14.382;2023-11-21T14:12:18;48.80;;;3.43;;
4174;SDS011;2101;48.290;14.382;2023-11-21T14:14:49;43.90;;;3.03;;
4174;SDS011;2101;48.290;14.382;2023-11-21T14:17:15;46.27;;;3.30;;
4174;SDS011;2101;48.290;14.382;2023-11-21T14:19:42;45.37;;;3.20;;
4174;SDS011;2101;48.290;14.382;2023-11-21T14:22:10;43.87;;;2.47;;
4174;SDS011;2101;48.290;14.382;2023-11-21T14:24:36;47.27;;;2.43;;
4174;SDS011;2101;48.290;14.382;2023-11-21T14:27:02;42.27;;;2.77;;
4174;SDS011;2101;48.290;14.382;2023-11-21T14:29:30;40.63;;;2.40;;
4174;SDS011;2101;48.290;14.382;2023-11-21T14:32:00;43.47;;;2.20;;
4174;SDS011;2101;48.290;14.382;2023-11-21T14:34:30;41.13;;;2.27;;
4174;SDS011;2101;48.290;14.382;2023-11-21T14:36:56;43.03;;;2.40;;
4174;SDS011;2101;48.290;14.382;2023-11-21T14:39:26;42.10;;;2.37;;
4174;SDS011;2101;48.290;14.382;2023-11-21T14:41:53;42.00;;;2.30;;
4174;SDS011;2101;48.290;14.382;2023-11-21T14:44:24;40.77;;;2.30;;
4174;SDS011;2101;48.290;14.382;2023-11-21T14:46:57;42.00;;;2.40;;
4174;SDS011;2101;48.290;14.382;2023-11-21T14:49:31;44.00;;;3.30;;
4174;SDS011;2101;48.290;14.382;2023-11-21T14:52:09;59.30;;;2.90;;
4174;SDS011;2101;48.290;14.382;2023-11-21T14:54:55;42.33;;;2.70;;
4174;SDS011;2101;48.290;14.382;2023-11-21T14:57:41;43.63;;;2.90;;
4174;SDS011;2101;48.290;14.382;2023-11-21T15:00:14;41.60;;;2.73;;
4174;SDS011;2101;48.290;14.382;2023-11-21T15:03:07;40.73;;;2.40;;
4174;SDS011;2101;48.290;14.382;2023-11-21T15:05:35;51.73;;;3.13;;
4174;SDS011;2101;48.290;14.382;2023-11-21T15:08:04;43.67;;;2.60;;
4174;SDS011;2101;48.290;14.382;2023-11-21T15:10:46;42.47;;;2.33;;
4174;SDS011;2101;48.290;14.382;2023-11-21T15:13:18;41.80;;;2.07;;
4174;SDS011;2101;48.290;14.382;2023-11-21T15:15:49;42.17;;;2.47;;
4174;SDS011;2101;48.290;14.382;2023-11-21T15:18:16;44.27;;;2.63;;
4174;SDS011;2101;48.290;14.382;2023-11-21T15:20:42;45.67;;;2.20;;
4174;SDS011;2101;48.290;14.382;2023-11-21T15:23:10;47.77;;;2.80;;
4174;SDS011;2101;48.290;14.382;2023-11-21T15:25:38;52.47;;;3.07;;
4174;SDS011;2101;48.290;14.382;2023-11-21T15:28:09;48.60;;;2.67;;
4174;SDS011;2101;48.290;14.382;2023-11-21T15:30:36;44.33;;;2.60;;
4174;SDS011;2101;48.290;14.382;2023-11-21T15:33:02;47.53;;;3.17;;
4174;SDS011;2101;48.290;14.382;2023-11-21T15:35:29;47.00;;;3.33;;
4174;SDS011;2101;48.290;14.382;2023-11-21T15:37:55;41.57;;;2.50;;
4174;SDS011;2101;48.290;14.382;2023-11-21T15:40:24;42.90;;;2.63;;
4174;SDS011;2101;48.290;14.382;2023-11-21T15:43:00;42.83;;;2.33;;
4174;SDS011;2101;48.290;14.382;2023-11-21T15:45:33;43.53;;;3.13;;
4174;SDS011;2101;48.290;14.382;2023-11-21T15:48:06;54.27;;;3.50;;
4174;SDS011;2101;48.290;14.382;2023-11-21T15:50:34;43.73;;;3.37;;
4174;SDS011;2101;48.290;14.382;2023-11-21T15:53:02;45.10;;;2.60;;
4174;SDS011;2101;48.290;14.382;2023-11-21T15:55:36;47.07;;;3.20;;
4174;SDS011;2101;48.290;14.382;2023-11-21T15:58:10;43.50;;;2.77;;
4174;SDS011;2101;48.290;14.382;2023-11-21T16:00:46;45.93;;;3.67;;
4174;SDS011;2101;48.290;14.382;2023-11-21T16:03:13;47.40;;;3.23;;
4174;SDS011;2101;48.290;14.382;2023-11-21T16:05:42;42.13;;;3.20;;
4174;SDS011;2101;48.290;14.382;2023-11-21T16:08:08;45.20;;;3.23;;
4174;SDS011;2101;48.290;14.382;2023-11-21T16:10:41;44.23;;;3.20;;
4174;SDS011;2101;48.290;14.382;2023-11-21T16:13:16;52.40;;;3.90;;
4174;SDS011;2101;48.290;14.382;2023-11-21T16:15:47;42.90;;;3.23;;
4174;SDS011;2101;48.290;14.382;2023-11-21T16:18:18;48.37;;;4.00;;
4174;SDS011;2101;48.290;14.382;2023-11-21T16:20:44;46.80;;;3.27;;
4174;SDS011;2101;48.290;14.382;2023-11-21T16:23:14;42.47;;;3.03;;
4174;SDS011;2101;48.290;14.382;2023-11-21T16:25:48;42.50;;;3.10;;
4174;SDS011;2101;48.290;14.382;2023-11-21T16:28:38;42.60;;;3.00;;
4174;SDS011;2101;48.290;14.382;2023-11-21T16:31:06;44.67;;;2.87;;
4174;SDS011;2101;48.290;14.382;2023-11-21T16:33:33;42.97;;;3.10;;
4174;SDS011;2101;48.290;14.382;2023-11-21T16:36:12;42.93;;;2.80;;
4174;SDS011;2101;48.290;14.382;2023-11-21T16:38:39;41.93;;;2.53;;
4174;SDS011;2101;48.290;14.382;2023-11-21T16:41:10;40.73;;;2.53;;
4174;SDS011;2101;48.290;14.382;2023-11-21T16:43:39;41.20;;;2.60;;
4174;SDS011;2101;48.290;14.382;2023-11-21T16:46:30;53.63;;;2.77;;
4174;SDS011;2101;48.290;14.382;2023-11-21T16:49:14;42.43;;;3.07;;
4174;SDS011;2101;48.290;14.382;2023-11-21T16:51:55;45.60;;;2.90;;
4174;SDS011;2101;48.290;14.382;2023-11-21T16:54:34;41.80;;;2.67;;
4174;SDS011;2101;48.290;14.382;2023-11-21T16:57:25;41.43;;;2.60;;
4174;SDS011;2101;48.290;14.382;2023-11-21T17:00:07;41.67;;;2.57;;
4174;SDS011;2101;48.290;14.382;2023-11-21T17:02:41;45.37;;;2.80;;
4174;SDS011;2101;48.290;14.382;2023-11-21T17:05:11;45.27;;;3.40;;
4174;SDS011;2101;48.290;14.382;2023-11-21T17:07:38;42.63;;;3.30;;
4174;SDS011;2101;48.290;14.382;2023-11-21T17:10:05;42.00;;;3.00;;
4174;SDS011;2101;48.290;14.382;2023-11-21T17:12:39;43.07;;;3.37;;
4174;SDS011;2101;48.290;14.382;2023-11-21T17:15:12;42.77;;;3.60;;
4174;SDS011;2101;48.290;14.382;2023-11-21T17:17:38;44.40;;;3.30;;
4174;SDS011;2101;48.290;14.382;2023-11-21T17:20:09;42.13;;;3.07;;
4174;SDS011;2101;48.290;14.382;2023-11-21T17:22:39;43.07;;;3.07;;
4174;SDS011;2101;48.290;14.382;2023-11-21T17:25:08;49.73;;;3.90;;
4174;SDS011;2101;48.290;14.382;2023-11-21T17:27:35;48.30;;;3.30;;
4174;SDS011;2101;48.290;14.382;2023-11-21T17:30:01;44.73;;;3.33;;
4174;SDS011;2101;48.290;14.382;2023-11-21T17:32:31;45.80;;;3.57;;
4174;SDS011;2101;48.290;14.382;2023-11-21T17:35:05;41.60;;;3.57;;
4174;SDS011;2101;48.290;14.382;2023-11-21T17:37:31;47.60;;;4.30;;
4174;SDS011;2101;48.290;14.382;2023-11-21T17:40:01;44.70;;;4.10;;
4174;SDS011;2101;48.290;14.382;2023-11-21T17:42:31;43.80;;;4.10;;
4174;SDS011;2101;48.290;14.382;2023-11-21T17:45:00;47.90;;;3.70;;
4174;SDS011;2101;48.290;14.382;2023-11-21T17:47:27;44.60;;;3.30;;
4174;SDS011;2101;48.290;14.382;2023-11-21T17:50:01;49.17;;;3.63;;
4174;SDS011;2101;48.290;14.382;2023-11-21T17:52:31;47.80;;;3.97;;
4174;SDS011;2101;48.290;14.382;2023-11-21T17:55:14;47.23;;;4.50;;
4174;SDS011;2101;48.290;14.382;2023-11-21T17:57:40;45.43;;;4.00;;
4174;SDS011;2101;48.290;14.382;2023-11-21T18:00:24;46.37;;;4.30;;
4174;SDS011;2101;48.290;14.382;2023-11-21T18:02:59;50.03;;;4.50;;
4174;SDS011;2101;48.290;14.382;2023-11-21T18:05:28;46.20;;;3.80;;
4174;SDS011;2101;48.290;14.382;2023-11-21T18:07:57;44.60;;;3.13;;
4174;SDS011;2101;48.290;14.382;2023-11-21T18:10:24;42.83;;;3.23;;
4174;SDS011;2101;48.290;14.382;2023-11-21T18:12:51;43.77;;;3.43;;
4174;SDS011;2101;48.290;14.382;2023-11-21T18:15:21;45.03;;;4.10;;
4174;SDS011;2101;48.290;14.382;2023-11-21T18:17:57;42.40;;;3.73;;
4174;SDS011;2101;48.290;14.382;2023-11-21T18:20:32;44.20;;;3.40;;
4174;SDS011;2101;48.290;14.382;2023-11-21T18:23:07;48.07;;;4.37;;
4174;SDS011;2101;48.290;14.382;2023-11-21T18:25:37;49.10;;;4.30;;
4174;SDS011;2101;48.290;14.382;2023-11-21T18:28:11;45.53;;;4.10;;
4174;SDS011;2101;48.290;14.382;2023-11-21T18:30:39;44.33;;;3.80;;
4174;SDS011;2101;48.290;14.382;2023-11-21T18:33:07;43.77;;;3.80;;
4174;SDS011;2101;48.290;14.382;2023-11-21T18:35:39;45.63;;;4.27;;
4174;SDS011;2101;48.290;14.382;2023-11-21T18:38:06;45.47;;;4.17;;
4174;SDS011;2101;48.290;14.382;2023-11-21T18:40:38;49.97;;;4.20;;
4174;SDS011;2101;48.290;14.382;2023-11-21T18:43:05;48.47;;;4.50;;
4174;SDS011;2101;48.290;14.382;2023-11-21T18:45:42;43.37;;;3.60;;
4174;SDS011;2101;48.290;14.382;2023-11-21T18:48:11;43.33;;;3.37;;
4174;SDS011;2101;48.290;14.382;2023-11-21T18:50:43;50.70;;;3.60;;
4174;SDS011;2101;48.290;14.382;2023-11-21T18:53:16;45.63;;;3.60;;
4174;SDS011;2101;48.290;14.382;2023-11-21T18:55:42;47.77;;;5.10;;
4174;SDS011;2101;48.290;14.382;2023-11-21T18:58:12;55.33;;;4.87;;
4174;SDS011;2101;48.290;14.382;2023-11-21T19:00:50;45.17;;;4.40;;
4174;SDS011;2101;48.290;14.382;2023-11-21T19:03:19;45.07;;;4.17;;
4174;SDS011;2101;48.290;14.382;2023-11-21T19:06:07;44.80;;;4.37;;
4174;SDS011;2101;48.290;14.382;2023-11-21T19:09:22;45.30;;;4.07;;
4174;SDS011;2101;48.290;14.382;2023-11-21T19:12:13;47.63;;;4.93;;
4174;SDS011;2101;48.290;14.382;2023-11-21T19:15:00;49.67;;;5.00;;
4174;SDS011;2101;48.290;14.382;2023-11-21T19:17:51;45.30;;;4.57;;
4174;SDS011;2101;48.290;14.382;2023-11-21T19:20:49;47.40;;;5.00;;
4174;SDS011;2101;48.290;14.382;2023-11-21T19:23:38;46.77;;;4.77;;
4174;SDS011;2101;48.290;14.382;2023-11-21T19:26:26;46.30;;;5.63;;
4174;SDS011;2101;48.290;14.382;2023-11-21T19:29:08;46.13;;;5.20;;
4174;SDS011;2101;48.290;14.382;2023-11-21T19:31:42;48.67;;;5.83;;
4174;SDS011;2101;48.290;14.382;2023-11-21T19:34:23;46.30;;;5.50;;
4174;SDS011;2101;48.290;14.382;2023-11-21T19:36:50;47.60;;;5.10;;
4174;SDS011;2101;48.290;14.382;2023-11-21T19:39:25;47.63;;;4.13;;
4174;SDS011;2101;48.290;14.382;2023-11-21T19:41:53;43.70;;;4.70;;
4174;SDS011;2101;48.290;14.382;2023-11-21T19:44:21;49.60;;;4.70;;
4174;SDS011;2101;48.290;14.382;2023-11-21T19:46:57;43.37;;;4.83;;
4174;SDS011;2101;48.290;14.382;2023-11-21T19:49:53;48.30;;;5.70;;
4174;SDS011;2101;48.290;14.382;2023-11-21T19:52:36;48.40;;;4.70;;
4174;SDS011;2101;48.290;14.382;2023-11-21T19:55:14;49.30;;;5.77;;
4174;SDS011;2101;48.290;14.382;2023-11-21T19:58:07;55.83;;;10.47;;
4174;SDS011;2101;48.290;14.382;2023-11-21T20:00:39;50.93;;;5.97;;
4174;SDS011;2101;48.290;14.382;2023-11-21T20:03:11;56.50;;;8.80;;
4174;SDS011;2101;48.290;14.382;2023-11-21T20:05:38;52.40;;;6.43;;
4174;SDS011;2101;48.290;14.382;2023-11-21T20:08:31;58.10;;;8.30;;
4174;SDS011;2101;48.290;14.382;2023-11-21T20:11:27;43.00;;;4.00;;
4174;SDS011;2101;48.290;14.382;2023-11-21T20:14:32;54.43;;;4.77;;
4174;SDS011;2101;48.290;14.382;2023-11-21T20:17:19;57.50;;;5.30;;
4174;SDS011;2101;48.290;14.382;2023-11-21T20:19:59;50.10;;;4.77;;
4174;SDS011;2101;48.290;14.382;2023-11-21T20:22:29;46.43;;;5.60;;